sensor_id;sensor_type;location;lat;lon;timestamp;pressure;altitude;pressure_sealevel;temperature;humidity
13709;BME280;54933;51.908;7.730;2024-03-17T00:00:19;101755.03;;;20.02;71.05
13709;BME280;54933;51.908;7.730;2024-03-17T00:02:44;101749.63;;;20.02;70.92
13709;BME280;54933;51.908;7.730;2024-03-17T00:05:10;101750.47;;;20.02;70.92
13709;BME280;54933;51.908;7.730;2024-03-17T00:07:35;101740.53;;;20.03;71.09
13709;BME280;54933;51.908;7.730;2024-03-17T00:10:00;101734.28;;;20.02;70.92
13709;BME280;54933;51.908;7.730;2024-03-17T00:12:26;101733.44;;;20.02;70.93
13709;BME280;54933;51.908;7.730;2024-03-17T00:14:51;101738.84;;;20.02;70.85
13709;BME280;54933;51.908;7.730;2024-03-17T00:17:16;101740.53;;;20.03;70.84
13709;BME280;54933;51.908;7.730;2024-03-17T00:19:41;101740.53;;;20.03;70.91
13709;BME280;54933;51.908;7.730;2024-03-17T00:22:07;101736.16;;;20.02;70.93
13709;BME280;54933;51.908;7.730;2024-03-17T00:24:34;101739.69;;;20.02;70.79
13709;BME280;54933;51.908;7.730;2024-03-17T00:27:01;101735.13;;;20.03;70.71
13709;BME280;54933;51.908;7.730;2024-03-17T00:29:26;101735.13;;;20.03;70.87
13709;BME280;54933;51.908;7.730;2024-03-17T00:31:53;101741.34;;;20.03;70.71
13709;BME280;54933;51.908;7.730;2024-03-17T00:34:18;101735.97;;;20.03;70.75
13709;BME280;54933;51.908;7.730;2024-03-17T00:36:44;101740.53;;;20.03;70.75
13709;BME280;54933;51.908;7.730;2024-03-17T00:39:09;101735.97;;;20.03;70.70
13709;BME280;54933;51.908;7.730;2024-03-17T00:41:34;101735.13;;;20.03;70.69
13709;BME280;54933;51.908;7.730;2024-03-17T00:44:00;101726.19;;;20.02;70.71
13709;BME280;54933;51.908;7.730;2024-03-17T00:46:26;101720.63;;;20.04;70.63
13709;BME280;54933;51.908;7.730;2024-03-17T00:48:51;101727.03;;;20.03;70.92
13709;BME280;54933;51.908;7.730;2024-03-17T00:51:16;101713.56;;;20.03;70.79
13709;BME280;54933;51.908;7.730;2024-03-17T00:53:42;101720.63;;;20.04;70.61
13709;BME280;54933;51.908;7.730;2024-03-17T00:56:08;101723.31;;;20.04;70.59
13709;BME280;54933;51.908;7.730;2024-03-17T00:58:33;101721.47;;;20.04;71.51
13709;BME280;54933;51.908;7.730;2024-03-17T01:00:58;101716.06;;;20.04;70.72
13709;BME280;54933;51.908;7.730;2024-03-17T01:03:24;101703.59;;;20.03;70.74
13709;BME280;54933;51.908;7.730;2024-03-17T01:05:49;101710.66;;;20.04;70.74
13709;BME280;54933;51.908;7.730;2024-03-17T01:08:17;101709.81;;;20.04;70.51
13709;BME280;54933;51.908;7.730;2024-03-17T01:10:44;101699.88;;;20.04;70.57
13709;BME280;54933;51.908;7.730;2024-03-17T01:13:10;101701.72;;;20.04;70.59
13709;BME280;54933;51.908;7.730;2024-03-17T01:15:36;101698.03;;;20.05;70.55
13709;BME280;54933;51.908;7.730;2024-03-17T01:18:02;101697.19;;;20.04;70.53
13709;BME280;54933;51.908;7.730;2024-03-17T01:20:29;101702.38;;;20.06;70.55
13709;BME280;54933;51.908;7.730;2024-03-17T01:22:54;101693.44;;;20.05;70.56
13709;BME280;54933;51.908;7.730;2024-03-17T01:25:20;101693.44;;;20.05;70.60
13709;BME280;54933;51.908;7.730;2024-03-17T01:27:45;101691.59;;;20.06;70.47
13709;BME280;54933;51.908;7.730;2024-03-17T01:30:11;101680.81;;;20.06;70.65
13709;BME280;54933;51.908;7.730;2024-03-17T01:32:36;101679.97;;;20.05;70.64
13709;BME280;54933;51.908;7.730;2024-03-17T01:35:01;101678.09;;;20.06;70.48
13709;BME280;54933;51.908;7.730;2024-03-17T01:37:27;101669.16;;;20.05;70.45
13709;BME280;54933;51.908;7.730;2024-03-17T01:39:57;101674.56;;;20.05;70.50
13709;BME280;54933;51.908;7.730;2024-03-17T01:42:22;101670.00;;;20.06;70.57
13709;BME280;54933;51.908;7.730;2024-03-17T01:44:47;101675.41;;;20.06;71.15
13709;BME280;54933;51.908;7.730;2024-03-17T01:47:13;101672.72;;;20.06;70.41
13709;BME280;54933;51.908;7.730;2024-03-17T01:49:38;101663.78;;;20.05;70.54
13709;BME280;54933;51.908;7.730;2024-03-17T01:52:03;101666.47;;;20.05;70.32
13709;BME280;54933;51.908;7.730;2024-03-17T01:54:30;101662.75;;;20.06;70.52
13709;BME280;54933;51.908;7.730;2024-03-17T01:56:56;101659.22;;;20.06;70.37
13709;BME280;54933;51.908;7.730;2024-03-17T01:59:21;101665.47;;;20.06;70.53
13709;BME280;54933;51.908;7.730;2024-03-17T02:01:46;101663.56;;;20.07;70.11
13709;BME280;54933;51.908;7.730;2024-03-17T02:04:12;101660.88;;;20.07;70.52
13709;BME280;54933;51.908;7.730;2024-03-17T02:06:37;101661.72;;;20.07;70.46
13709;BME280;54933;51.908;7.730;2024-03-17T02:09:02;101655.47;;;20.07;70.40
13709;BME280;54933;51.908;7.730;2024-03-17T02:11:32;101660.88;;;20.07;70.51
13709;BME280;54933;51.908;7.730;2024-03-17T02:13:58;101662.97;;;20.05;70.36
13709;BME280;54933;51.908;7.730;2024-03-17T02:16:24;101677.06;;;20.07;70.31
13709;BME280;54933;51.908;7.730;2024-03-17T02:18:54;101673.38;;;20.08;70.30
13709;BME280;54933;51.908;7.730;2024-03-17T02:21:19;101666.28;;;20.07;70.33
13709;BME280;54933;51.908;7.730;2024-03-17T02:23:48;101662.75;;;20.06;70.43
13709;BME280;54933;51.908;7.730;2024-03-17T02:26:13;101659.22;;;20.06;70.36
13709;BME280;54933;51.908;7.730;2024-03-17T02:28:43;101665.47;;;20.06;70.22
13709;BME280;54933;51.908;7.730;2024-03-17T02:31:10;101655.47;;;20.07;70.34
13709;BME280;54933;51.908;7.730;2024-03-17T02:33:36;101653.81;;;20.06;70.21
13709;BME280;54933;51.908;7.730;2024-03-17T02:36:05;101652.78;;;20.07;70.19
13709;BME280;54933;51.908;7.730;2024-03-17T02:38:38;101654.66;;;20.06;70.18
13709;BME280;54933;51.908;7.730;2024-03-17T02:41:22;101657.38;;;20.06;70.31
13709;BME280;54933;51.908;7.730;2024-03-17T02:43:48;101660.88;;;20.07;70.17
13709;BME280;54933;51.908;7.730;2024-03-17T02:46:17;101657.38;;;20.06;70.11
13709;BME280;54933;51.908;7.730;2024-03-17T02:48:44;101660.06;;;20.06;70.09
13709;BME280;54933;51.908;7.730;2024-03-17T02:51:15;101652.78;;;20.07;70.26
13709;BME280;54933;51.908;7.730;2024-03-17T02:53:42;101655.47;;;20.07;70.22
13709;BME280;54933;51.908;7.730;2024-03-17T02:56:08;101652.78;;;20.07;70.15
13709;BME280;54933;51.908;7.730;2024-03-17T02:58:37;101643.03;;;20.06;70.23
13709;BME280;54933;51.908;7.730;2024-03-17T03:01:03;101649.28;;;20.06;70.20
13709;BME280;54933;51.908;7.730;2024-03-17T03:03:30;101650.09;;;20.07;70.21
13709;BME280;54933;51.908;7.730;2024-03-17T03:05:55;101650.09;;;20.07;70.18
13709;BME280;54933;51.908;7.730;2024-03-17T03:08:22;101652.78;;;20.07;70.11
13709;BME280;54933;51.908;7.730;2024-03-17T03:10:47;101644.69;;;20.07;70.15
13709;BME280;54933;51.908;7.730;2024-03-17T03:13:13;101647.38;;;20.07;70.10
13709;BME280;54933;51.908;7.730;2024-03-17T03:15:38;101640.13;;;20.07;70.06
13709;BME280;54933;51.908;7.730;2024-03-17T03:18:03;101647.38;;;20.07;69.89
13709;BME280;54933;51.908;7.730;2024-03-17T03:20:29;101655.47;;;20.07;70.10
13709;BME280;54933;51.908;7.730;2024-03-17T03:22:55;101649.28;;;20.06;69.96
13709;BME280;54933;51.908;7.730;2024-03-17T03:25:20;101650.09;;;20.07;69.92
13709;BME280;54933;51.908;7.730;2024-03-17T03:27:45;101651.78;;;20.08;69.92
13709;BME280;54933;51.908;7.730;2024-03-17T03:30:11;101648.25;;;20.07;70.18
13709;BME280;54933;51.908;7.730;2024-03-17T03:32:37;101644.69;;;20.07;69.98
13709;BME280;54933;51.908;7.730;2024-03-17T03:35:04;101642.00;;;20.07;69.89
13709;BME280;54933;51.908;7.730;2024-03-17T03:37:30;101650.09;;;20.07;69.93
13709;BME280;54933;51.908;7.730;2024-03-17T03:39:55;101644.69;;;20.07;69.92
13709;BME280;54933;51.908;7.730;2024-03-17T03:42:21;101638.47;;;20.06;70.07
13709;BME280;54933;51.908;7.730;2024-03-17T03:44:46;101639.28;;;20.07;70.09
13709;BME280;54933;51.908;7.730;2024-03-17T03:47:14;101644.69;;;20.07;70.10
13709;BME280;54933;51.908;7.730;2024-03-17T03:49:39;101643.69;;;20.08;69.99
13709;BME280;54933;51.908;7.730;2024-03-17T03:52:04;101635.59;;;20.08;70.03
13709;BME280;54933;51.908;7.730;2024-03-17T03:54:30;101649.91;;;20.08;70.08
13709;BME280;54933;51.908;7.730;2024-03-17T03:56:55;101642.00;;;20.07;70.09
13709;BME280;54933;51.908;7.730;2024-03-17T03:59:20;101636.59;;;20.07;70.10
13709;BME280;54933;51.908;7.730;2024-03-17T04:01:46;101642.00;;;20.07;70.14
13709;BME280;54933;51.908;7.730;2024-03-17T04:04:13;101641.00;;;20.08;69.99
13709;BME280;54933;51.908;7.730;2024-03-17T04:06:38;101634.94;;;20.06;70.09
13709;BME280;54933;51.908;7.730;2024-03-17T04:09:03;101653.63;;;20.07;70.21
13709;BME280;54933;51.908;7.730;2024-03-17T04:11:32;101642.00;;;20.07;70.11
13709;BME280;54933;51.908;7.730;2024-03-17T04:13:58;101644.69;;;20.07;70.10
13709;BME280;54933;51.908;7.730;2024-03-17T04:16:26;101650.09;;;20.07;69.97
13709;BME280;54933;51.908;7.730;2024-03-17T04:18:51;101642.00;;;20.07;70.12
13709;BME280;54933;51.908;7.730;2024-03-17T04:21:16;101639.28;;;20.07;70.17
13709;BME280;54933;51.908;7.730;2024-03-17T04:23:42;101642.84;;;20.07;70.00
13709;BME280;54933;51.908;7.730;2024-03-17T04:26:07;101640.13;;;20.07;70.08
13709;BME280;54933;51.908;7.730;2024-03-17T04:28:35;101640.34;;;20.06;69.92
13709;BME280;54933;51.908;7.730;2024-03-17T04:31:07;101637.63;;;20.06;70.01
13709;BME280;54933;51.908;7.730;2024-03-17T04:33:33;101642.00;;;20.07;70.08
13709;BME280;54933;51.908;7.730;2024-03-17T04:36:00;101643.03;;;20.06;69.99
13709;BME280;54933;51.908;7.730;2024-03-17T04:38:25;101643.88;;;20.06;70.04
13709;BME280;54933;51.908;7.730;2024-03-17T04:40:52;101639.28;;;20.07;69.92
13709;BME280;54933;51.908;7.730;2024-03-17T04:43:22;101639.28;;;20.07;69.97
13709;BME280;54933;51.908;7.730;2024-03-17T04:45:47;101633.09;;;20.06;69.91
13709;BME280;54933;51.908;7.730;2024-03-17T04:48:14;101638.47;;;20.06;70.08
13709;BME280;54933;51.908;7.730;2024-03-17T04:50:40;101639.50;;;20.05;69.93
13709;BME280;54933;51.908;7.730;2024-03-17T04:53:05;101641.19;;;20.06;69.88
13709;BME280;54933;51.908;7.730;2024-03-17T04:55:31;101637.63;;;20.06;70.04
13709;BME280;54933;51.908;7.730;2024-03-17T04:57:56;101644.69;;;20.07;69.82
13709;BME280;54933;51.908;7.730;2024-03-17T05:00:21;101639.50;;;20.05;69.89
13709;BME280;54933;51.908;7.730;2024-03-17T05:02:47;101640.34;;;20.06;70.06
13709;BME280;54933;51.908;7.730;2024-03-17T05:05:12;101643.03;;;20.06;69.88
13709;BME280;54933;51.908;7.730;2024-03-17T05:07:38;101643.03;;;20.06;69.89
13709;BME280;54933;51.908;7.730;2024-03-17T05:10:04;101634.94;;;20.06;69.78
13709;BME280;54933;51.908;7.730;2024-03-17T05:12:29;101633.09;;;20.06;69.81
13709;BME280;54933;51.908;7.730;2024-03-17T05:14:54;101635.97;;;20.05;69.82
13709;BME280;54933;51.908;7.730;2024-03-17T05:17:19;101631.41;;;20.05;69.78
13709;BME280;54933;51.908;7.730;2024-03-17T05:19:45;101633.91;;;20.07;69.75
13709;BME280;54933;51.908;7.730;2024-03-17T05:22:10;101634.94;;;20.06;69.75
13709;BME280;54933;51.908;7.730;2024-03-17T05:24:36;101632.25;;;20.06;69.71
13709;BME280;54933;51.908;7.730;2024-03-17T05:27:01;101626.00;;;20.05;69.65
13709;BME280;54933;51.908;7.730;2024-03-17T05:29:26;101627.69;;;20.06;69.63
13709;BME280;54933;51.908;7.730;2024-03-17T05:31:52;101616.06;;;20.06;69.65
13709;BME280;54933;51.908;7.730;2024-03-17T05:34:17;101610.66;;;20.06;69.77
13709;BME280;54933;51.908;7.730;2024-03-17T05:36:42;101610.66;;;20.06;69.69
13709;BME280;54933;51.908;7.730;2024-03-17T05:39:07;101616.06;;;20.06;69.79
13709;BME280;54933;51.908;7.730;2024-03-17T05:41:33;101610.66;;;20.06;69.67
13709;BME280;54933;51.908;7.730;2024-03-17T05:43:58;101615.22;;;20.05;69.77
13709;BME280;54933;51.908;7.730;2024-03-17T05:46:24;101611.69;;;20.05;69.71
13709;BME280;54933;51.908;7.730;2024-03-17T05:48:51;101620.59;;;20.05;69.57
13709;BME280;54933;51.908;7.730;2024-03-17T05:51:17;101612.69;;;20.04;69.73
13709;BME280;54933;51.908;7.730;2024-03-17T05:53:42;101619.78;;;20.05;69.58
13709;BME280;54933;51.908;7.730;2024-03-17T05:56:11;101615.41;;;20.04;69.82
13709;BME280;54933;51.908;7.730;2024-03-17T05:58:38;101619.78;;;20.05;69.70
13709;BME280;54933;51.908;7.730;2024-03-17T06:01:04;101623.50;;;20.04;69.54
13709;BME280;54933;51.908;7.730;2024-03-17T06:03:29;101614.56;;;20.03;69.74
13709;BME280;54933;51.908;7.730;2024-03-17T06:05:55;101618.09;;;20.04;69.73
13709;BME280;54933;51.908;7.730;2024-03-17T06:08:20;101619.78;;;20.05;69.73
13709;BME280;54933;51.908;7.730;2024-03-17T06:10:47;101610.00;;;20.04;nan
13709;BME280;54933;51.908;7.730;2024-03-17T06:13:13;101611.84;;;20.03;69.60
13709;BME280;54933;51.908;7.730;2024-03-17T06:15:41;101611.03;;;20.03;69.64
13709;BME280;54933;51.908;7.730;2024-03-17T06:18:08;101606.47;;;20.03;69.64
13709;BME280;54933;51.908;7.730;2024-03-17T06:20:35;101608.34;;;20.03;69.70
13709;BME280;54933;51.908;7.730;2024-03-17T06:23:00;101609.16;;;20.03;69.67
13709;BME280;54933;51.908;7.730;2024-03-17T06:25:26;101612.69;;;20.04;69.72
13709;BME280;54933;51.908;7.730;2024-03-17T06:27:53;101612.03;;;20.02;69.51
13709;BME280;54933;51.908;7.730;2024-03-17T06:30:18;101616.44;;;20.03;69.74
13709;BME280;54933;51.908;7.730;2024-03-17T06:32:45;101617.25;;;20.03;69.75
13709;BME280;54933;51.908;7.730;2024-03-17T06:35:11;101614.75;;;20.02;69.65
13709;BME280;54933;51.908;7.730;2024-03-17T06:37:37;101612.03;;;20.02;69.47
13709;BME280;54933;51.908;7.730;2024-03-17T06:40:02;101618.28;;;20.02;69.62
13709;BME280;54933;51.908;7.730;2024-03-17T06:42:29;101614.75;;;20.02;69.66
13709;BME280;54933;51.908;7.730;2024-03-17T06:44:54;101623.69;;;20.02;69.71
13709;BME280;54933;51.908;7.730;2024-03-17T06:47:20;101614.75;;;20.02;69.66
13709;BME280;54933;51.908;7.730;2024-03-17T06:49:45;101617.44;;;20.02;69.45
13709;BME280;54933;51.908;7.730;2024-03-17T06:52:10;101618.28;;;20.02;69.53
13709;BME280;54933;51.908;7.730;2024-03-17T06:54:36;101614.75;;;20.02;69.52
13709;BME280;54933;51.908;7.730;2024-03-17T06:57:01;101613.94;;;20.01;69.67
13709;BME280;54933;51.908;7.730;2024-03-17T06:59:26;101617.44;;;20.02;69.54
13709;BME280;54933;51.908;7.730;2024-03-17T07:01:51;101616.63;;;20.01;69.53
13709;BME280;54933;51.908;7.730;2024-03-17T07:04:17;101610.38;;;20.01;69.58
13709;BME280;54933;51.908;7.730;2024-03-17T07:06:42;101610.19;;;20.02;69.38
13709;BME280;54933;51.908;7.730;2024-03-17T07:09:08;101613.94;;;20.01;69.63
13709;BME280;54933;51.908;7.730;2024-03-17T07:11:34;101615.78;;;20.01;69.59
13709;BME280;54933;51.908;7.730;2024-03-17T07:13:59;101620.97;;;20.02;69.49
13709;BME280;54933;51.908;7.730;2024-03-17T07:16:24;101624.72;;;20.01;69.35
13709;BME280;54933;51.908;7.730;2024-03-17T07:18:52;101613.94;;;20.01;69.51
13709;BME280;54933;51.908;7.730;2024-03-17T07:21:18;101613.75;;;20.03;69.36
13709;BME280;54933;51.908;7.730;2024-03-17T07:23:44;101599.22;;;20.04;69.16
13709;BME280;54933;51.908;7.730;2024-03-17T07:26:09;101591.31;;;20.02;69.30
13709;BME280;54933;51.908;7.730;2024-03-17T07:28:35;101593.16;;;20.02;69.28
13709;BME280;54933;51.908;7.730;2024-03-17T07:31:02;101597.56;;;20.03;69.28
13709;BME280;54933;51.908;7.730;2024-03-17T07:33:28;101600.25;;;20.03;69.40
13709;BME280;54933;51.908;7.730;2024-03-17T07:35:57;101596.72;;;20.02;68.99
13709;BME280;54933;51.908;7.730;2024-03-17T07:38:25;101597.75;;;20.01;69.31
13709;BME280;54933;51.908;7.730;2024-03-17T07:41:01;101605.66;;;20.03;69.27
13709;BME280;54933;51.908;7.730;2024-03-17T07:43:28;101602.09;;;20.02;69.24
13709;BME280;54933;51.908;7.730;2024-03-17T07:48:26;101596.91;;;20.01;69.23
13709;BME280;54933;51.908;7.730;2024-03-17T07:50:56;101603.13;;;20.01;69.49
13709;BME280;54933;51.908;7.730;2024-03-17T07:53:21;101603.94;;;20.02;69.30
13709;BME280;54933;51.908;7.730;2024-03-17T07:55:46;101603.94;;;20.02;69.47
13709;BME280;54933;51.908;7.730;2024-03-17T07:58:12;101608.53;;;20.01;69.46
13709;BME280;54933;51.908;7.730;2024-03-17T08:00:37;101603.94;;;20.02;69.45
13709;BME280;54933;51.908;7.730;2024-03-17T08:03:02;101596.91;;;20.01;69.48
13709;BME280;54933;51.908;7.730;2024-03-17T08:05:29;101609.34;;;20.02;69.52
13709;BME280;54933;51.908;7.730;2024-03-17T08:07:54;101603.94;;;20.02;69.49
13709;BME280;54933;51.908;7.730;2024-03-17T08:10:20;101603.94;;;20.02;69.49
13709;BME280;54933;51.908;7.730;2024-03-17T08:12:46;101607.50;;;20.02;69.45
13709;BME280;54933;51.908;7.730;2024-03-17T08:15:12;101611.22;;;20.01;69.49
13709;BME280;54933;51.908;7.730;2024-03-17T08:17:37;101609.34;;;20.02;69.43
13709;BME280;54933;51.908;7.730;2024-03-17T08:20:03;101611.22;;;20.01;69.66
13709;BME280;54933;51.908;7.730;2024-03-17T08:22:28;101612.03;;;20.02;69.52
13709;BME280;54933;51.908;7.730;2024-03-17T08:24:54;101617.44;;;20.02;69.51
13709;BME280;54933;51.908;7.730;2024-03-17T08:27:19;101613.09;;;20.01;69.46
13709;BME280;54933;51.908;7.730;2024-03-17T08:29:44;101623.88;;;20.01;69.50
13709;BME280;54933;51.908;7.730;2024-03-17T08:32:09;101623.88;;;20.01;69.46
13709;BME280;54933;51.908;7.730;2024-03-17T08:34:35;101632.81;;;20.01;69.55
13709;BME280;54933;51.908;7.730;2024-03-17T08:37:00;101625.72;;;20.00;69.50
13709;BME280;54933;51.908;7.730;2024-03-17T08:39:25;101622.22;;;20.00;69.49
13709;BME280;54933;51.908;7.730;2024-03-17T08:41:50;101618.47;;;20.01;69.51
13709;BME280;54933;51.908;7.730;2024-03-17T08:44:16;101618.47;;;20.01;69.57
13709;BME280;54933;51.908;7.730;2024-03-17T08:46:41;101616.81;;;20.00;69.59
13709;BME280;54933;51.908;7.730;2024-03-17T08:49:06;101615.78;;;20.01;69.35
13709;BME280;54933;51.908;7.730;2024-03-17T08:51:31;101608.72;;;20.00;69.59
13709;BME280;54933;51.908;7.730;2024-03-17T08:53:57;101613.09;;;20.01;69.46
13709;BME280;54933;51.908;7.730;2024-03-17T08:56:22;101613.09;;;20.01;69.58
13709;BME280;54933;51.908;7.730;2024-03-17T08:58:48;101617.63;;;20.00;69.53
13709;BME280;54933;51.908;7.730;2024-03-17T09:01:14;101613.94;;;20.01;69.65
13709;BME280;54933;51.908;7.730;2024-03-17T09:03:40;101615.78;;;20.01;69.56
13709;BME280;54933;51.908;7.730;2024-03-17T09:06:15;101612.25;;;20.00;69.62
13709;BME280;54933;51.908;7.730;2024-03-17T09:08:41;101612.25;;;20.00;69.62
13709;BME280;54933;51.908;7.730;2024-03-17T09:11:12;101613.09;;;20.01;69.61
13709;BME280;54933;51.908;7.730;2024-03-17T09:13:37;101613.09;;;20.01;69.65
13709;BME280;54933;51.908;7.730;2024-03-17T09:16:03;101609.53;;;20.00;69.77
13709;BME280;54933;51.908;7.730;2024-03-17T09:18:32;101607.69;;;20.01;70.13
13709;BME280;54933;51.908;7.730;2024-03-17T09:21:04;101597.94;;;20.00;69.87
13709;BME280;54933;51.908;7.730;2024-03-17T09:23:31;101601.44;;;20.00;69.85
13709;BME280;54933;51.908;7.730;2024-03-17T09:26:03;101601.44;;;20.00;69.75
13709;BME280;54933;51.908;7.730;2024-03-17T09:28:30;101605.84;;;20.01;nan
13709;BME280;54933;51.908;7.730;2024-03-17T09:30:56;101610.38;;;20.01;69.73
13709;BME280;54933;51.908;7.730;2024-03-17T09:33:22;101609.34;;;20.02;69.72
13709;BME280;54933;51.908;7.730;2024-03-17T09:36:02;101605.66;;;20.03;69.81
13709;BME280;54933;51.908;7.730;2024-03-17T09:38:29;101598.56;;;20.02;69.89
13709;BME280;54933;51.908;7.730;2024-03-17T09:40:54;101610.19;;;20.02;69.46
13709;BME280;54933;51.908;7.730;2024-03-17T09:43:25;101602.94;;;20.03;69.62
13709;BME280;54933;51.908;7.730;2024-03-17T09:45:52;101605.66;;;20.03;69.49
13709;BME280;54933;51.908;7.730;2024-03-17T09:48:24;101606.66;;;20.02;69.45
13709;BME280;54933;51.908;7.730;2024-03-17T09:50:51;101592.16;;;20.03;69.60
13709;BME280;54933;51.908;7.730;2024-03-17T09:53:23;101590.47;;;20.02;69.77
13709;BME280;54933;51.908;7.730;2024-03-17T09:55:50;101582.38;;;20.02;69.57
13709;BME280;54933;51.908;7.730;2024-03-17T09:58:16;101573.28;;;20.03;69.84
13709;BME280;54933;51.908;7.730;2024-03-17T10:00:43;101563.28;;;20.03;69.70
13709;BME280;54933;51.908;7.730;2024-03-17T10:03:08;101557.91;;;20.03;69.63
13709;BME280;54933;51.908;7.730;2024-03-17T10:05:33;101558.75;;;20.04;69.76
13709;BME280;54933;51.908;7.730;2024-03-17T10:07:59;101557.09;;;20.03;69.94
13709;BME280;54933;51.908;7.730;2024-03-17T10:10:24;101557.09;;;20.03;69.85
13709;BME280;54933;51.908;7.730;2024-03-17T10:12:51;101560.59;;;20.03;69.76
13709;BME280;54933;51.908;7.730;2024-03-17T10:15:17;101567.88;;;20.03;69.99
13709;BME280;54933;51.908;7.730;2024-03-17T10:17:43;101567.88;;;20.03;69.92
13709;BME280;54933;51.908;7.730;2024-03-17T10:20:15;101569.53;;;20.04;69.38
13709;BME280;54933;51.908;7.730;2024-03-17T10:22:57;101581.38;;;20.03;69.45
13709;BME280;54933;51.908;7.730;2024-03-17T10:25:27;101586.75;;;20.03;69.00
13709;BME280;54933;51.908;7.730;2024-03-17T10:27:53;101591.31;;;20.02;69.02
13709;BME280;54933;51.908;7.730;2024-03-17T10:30:19;101592.16;;;20.03;68.99
13709;BME280;54933;51.908;7.730;2024-03-17T10:32:52;101594.00;;;20.02;69.18
13709;BME280;54933;51.908;7.730;2024-03-17T10:35:30;101586.75;;;20.03;69.22
13709;BME280;54933;51.908;7.730;2024-03-17T10:38:00;101582.19;;;20.03;68.79
13709;BME280;54933;51.908;7.730;2024-03-17T10:40:27;101577.81;;;20.02;69.21
13709;BME280;54933;51.908;7.730;2024-03-17T10:42:54;101568.69;;;20.03;69.16
13709;BME280;54933;51.908;7.730;2024-03-17T10:45:20;101572.75;;;20.14;68.58
13709;BME280;54933;51.908;7.730;2024-03-17T10:47:48;101566.34;;;20.15;65.52
13709;BME280;54933;51.908;7.730;2024-03-17T10:50:23;101578.28;;;20.06;64.64
13709;BME280;54933;51.908;7.730;2024-03-17T10:52:50;101578.84;;;20.01;64.92
13709;BME280;54933;51.908;7.730;2024-03-17T10:55:26;101584.44;;;20.00;65.46
13709;BME280;54933;51.908;7.730;2024-03-17T10:57:55;101577.34;;;19.99;65.96
13709;BME280;54933;51.908;7.730;2024-03-17T11:00:24;101582.75;;;19.99;66.28
13709;BME280;54933;51.908;7.730;2024-03-17T11:02:52;101577.34;;;19.99;66.52
13709;BME280;54933;51.908;7.730;2024-03-17T11:05:28;101583.59;;;19.99;66.86
13709;BME280;54933;51.908;7.730;2024-03-17T11:07:59;101582.75;;;19.99;67.17
13709;BME280;54933;51.908;7.730;2024-03-17T11:10:33;101577.34;;;19.99;67.40
13709;BME280;54933;51.908;7.730;2024-03-17T11:13:00;101573.66;;;20.00;67.53
13709;BME280;54933;51.908;7.730;2024-03-17T11:20:34;101573.66;;;20.00;67.81
13709;BME280;54933;51.908;7.730;2024-03-17T11:23:00;101571.56;;;20.02;67.98
13709;BME280;54933;51.908;7.730;2024-03-17T11:27:54;101571.56;;;20.02;68.20
13709;BME280;54933;51.908;7.730;2024-03-17T11:38:53;101570.38;;;20.04;68.45
13709;BME280;54933;51.908;7.730;2024-03-17T11:44:24;101562.09;;;20.06;68.65
13709;BME280;54933;51.908;7.730;2024-03-17T11:46:55;101562.09;;;20.06;69.03
13709;BME280;54933;51.908;7.730;2024-03-17T11:49:25;101559.41;;;20.06;68.82
13709;BME280;54933;51.908;7.730;2024-03-17T11:51:53;101555.03;;;20.05;68.82
13709;BME280;54933;51.908;7.730;2024-03-17T11:54:20;101554.84;;;20.06;68.77
13709;BME280;54933;51.908;7.730;2024-03-17T11:56:53;101562.09;;;20.06;69.03
13709;BME280;54933;51.908;7.730;2024-03-17T11:59:20;101549.63;;;20.05;69.13
13709;BME280;54933;51.908;7.730;2024-03-17T12:01:46;101558.53;;;20.05;68.99
13709;BME280;54933;51.908;7.730;2024-03-17T12:04:19;101552.97;;;20.07;69.09
13709;BME280;54933;51.908;7.730;2024-03-17T12:06:52;101561.06;;;20.07;69.20
13709;BME280;54933;51.908;7.730;2024-03-17T12:14:25;101553.81;;;20.07;69.45
13709;BME280;54933;51.908;7.730;2024-03-17T12:16:59;101552.97;;;20.07;69.45
13709;BME280;54933;51.908;7.730;2024-03-17T12:19:25;101556.50;;;20.07;69.49
13709;BME280;54933;51.908;7.730;2024-03-17T12:21:55;101554.66;;;20.08;69.47
13709;BME280;54933;51.908;7.730;2024-03-17T12:24:23;101537.63;;;20.07;nan
13709;BME280;54933;51.908;7.730;2024-03-17T12:26:50;101536.78;;;20.07;69.48
13709;BME280;54933;51.908;7.730;2024-03-17T12:29:27;101532.22;;;20.07;69.74
13709;BME280;54933;51.908;7.730;2024-03-17T12:31:56;101538.47;;;20.08;69.73
13709;BME280;54933;51.908;7.730;2024-03-17T12:34:23;101530.38;;;20.08;69.73
13709;BME280;54933;51.908;7.730;2024-03-17T12:36:49;101516.88;;;20.08;69.59
13709;BME280;54933;51.908;7.730;2024-03-17T12:39:26;101515.84;;;20.09;69.67
13709;BME280;54933;51.908;7.730;2024-03-17T12:42:07;101502.34;;;20.09;69.93
13709;BME280;54933;51.908;7.730;2024-03-17T12:44:36;101506.69;;;20.10;69.73
13709;BME280;54933;51.908;7.730;2024-03-17T12:47:30;101509.41;;;20.10;69.83
13709;BME280;54933;51.908;7.730;2024-03-17T12:49:54;101496.09;;;20.08;69.87
13709;BME280;54933;51.908;7.730;2024-03-17T12:52:31;101502.34;;;20.09;69.86
13709;BME280;54933;51.908;7.730;2024-03-17T12:55:01;101495.91;;;20.10;69.88
13709;BME280;54933;51.908;7.730;2024-03-17T12:57:47;101487.00;;;20.09;69.97
13709;BME280;54933;51.908;7.730;2024-03-17T13:00:32;101487.81;;;20.10;70.36
13709;BME280;54933;51.908;7.730;2024-03-17T13:02:58;101487.81;;;20.10;70.14
13709;BME280;54933;51.908;7.730;2024-03-17T13:05:24;101483.28;;;20.10;70.26
13709;BME280;54933;51.908;7.730;2024-03-17T13:07:50;101468.13;;;20.09;70.17
13709;BME280;54933;51.908;7.730;2024-03-17T13:10:16;101469.78;;;20.10;70.30
13709;BME280;54933;51.908;7.730;2024-03-17T13:12:43;101462.53;;;20.11;70.33
13709;BME280;54933;51.908;7.730;2024-03-17T13:15:16;101456.28;;;20.10;70.38